createdAt,value
2019-02-14T00:01:43.438Z,82.88
2019-02-14T00:04:12.653Z,82.93
2019-02-14T00:06:41.863Z,82.93
2019-02-14T00:09:12.812Z,82.89
2019-02-14T00:11:42.032Z,82.87
2019-02-14T00:14:11.280Z,82.95
2019-02-14T00:16:42.598Z,83.12
2019-02-14T00:19:11.929Z,83.36
2019-02-14T00:21:41.100Z,83.54
2019-02-14T00:24:10.836Z,83.67
2019-02-14T00:26:40.057Z,83.83
2019-02-14T00:29:09.247Z,83.97
2019-02-14T00:31:38.434Z,84.26
2019-02-14T00:34:07.653Z,84.50
2019-02-14T00:36:36.822Z,84.53
2019-02-14T00:39:06.186Z,84.67
2019-02-14T00:41:35.403Z,84.84
2019-02-14T00:44:04.597Z,84.92
2019-02-14T00:46:33.792Z,84.94
2019-02-14T00:49:02.998Z,85.00
2019-02-14T00:51:32.198Z,84.97
2019-02-14T00:54:04.408Z,85.01
2019-02-14T00:56:33.593Z,85.06
2019-02-14T00:59:02.785Z,85.04
2019-02-14T01:01:31.993Z,84.93
2019-02-14T01:04:01.201Z,85.02
2019-02-14T01:06:30.576Z,85.15
2019-02-14T01:08:59.792Z,85.21
2019-02-14T01:11:28.913Z,85.09
2019-02-14T01:13:58.170Z,85.17
2019-02-14T01:16:27.395Z,85.09
2019-02-14T01:18:56.586Z,85.11
2019-02-14T01:21:25.792Z,84.99
2019-02-14T01:23:55.078Z,85.04
2019-02-14T01:26:24.270Z,85.02
2019-02-14T01:28:53.478Z,84.91
2019-02-14T01:31:22.692Z,84.66
2019-02-14T01:33:51.885Z,84.70
2019-02-14T01:36:21.066Z,84.40
2019-02-14T01:38:50.288Z,84.31
2019-02-14T01:41:19.500Z,84.09
2019-02-14T01:43:48.714Z,84.05
2019-02-14T01:46:17.896Z,83.94
2019-02-14T01:48:47.093Z,83.81
2019-02-14T01:51:16.308Z,83.90
2019-02-14T01:53:45.488Z,83.80
2019-02-14T01:56:14.680Z,83.61
2019-02-14T01:58:43.903Z,83.56
2019-02-14T02:01:13.095Z,83.43
2019-02-14T02:03:42.284Z,83.03
2019-02-14T02:06:11.496Z,82.91
2019-02-14T02:08:40.684Z,82.81
2019-02-14T02:11:09.872Z,82.88
2019-02-14T02:13:39.069Z,82.83
2019-02-14T02:16:08.266Z,82.76
2019-02-14T02:18:39.136Z,82.43
2019-02-14T02:21:08.317Z,82.37
2019-02-14T02:23:37.581Z,82.12
2019-02-14T02:26:06.775Z,82.02
2019-02-14T02:28:35.960Z,82.08
2019-02-14T02:31:05.137Z,82.31
2019-02-14T02:33:34.355Z,82.42
2019-02-14T02:36:03.559Z,82.24
2019-02-14T02:38:33.768Z,82.26
2019-02-14T02:41:02.978Z,82.36
2019-02-14T02:43:32.227Z,82.55
2019-02-14T02:46:01.423Z,82.69
2019-02-14T02:48:30.634Z,82.76
2019-02-14T02:50:59.832Z,82.66
2019-02-14T02:53:29.019Z,82.81
2019-02-14T02:55:58.265Z,82.76
2019-02-14T02:58:27.442Z,82.89
2019-02-14T03:00:56.614Z,82.84
2019-02-14T03:03:25.842Z,82.94
2019-02-14T03:05:56.614Z,82.95
2019-02-14T03:08:25.794Z,82.84
2019-02-14T03:10:55.045Z,82.48
2019-02-14T03:13:24.249Z,82.17
2019-02-14T03:15:53.441Z,81.92
2019-02-14T03:18:22.677Z,81.88
2019-02-14T03:20:51.894Z,81.69
2019-02-14T03:23:21.085Z,81.34
2019-02-14T03:25:50.313Z,81.04
2019-02-14T03:28:19.949Z,81.02
2019-02-14T03:30:49.145Z,80.80
2019-02-14T03:33:18.396Z,80.77
2019-02-14T03:35:47.577Z,80.61
2019-02-14T03:38:16.787Z,80.51
2019-02-14T03:40:45.976Z,80.44
2019-02-14T03:43:15.214Z,80.49
2019-02-14T03:45:44.403Z,80.49
2019-02-14T03:48:13.527Z,80.57
2019-02-14T03:50:42.744Z,80.49
2019-02-14T03:53:11.921Z,80.42
2019-02-14T03:55:41.344Z,80.58
2019-02-14T03:58:10.578Z,80.61
2019-02-14T04:00:40.266Z,80.33
2019-02-14T04:03:09.448Z,80.09
2019-02-14T04:05:38.687Z,80.07
2019-02-14T04:08:07.897Z,79.92
2019-02-14T04:10:37.068Z,79.86
2019-02-14T04:13:06.296Z,79.83
2019-02-14T04:15:35.896Z,79.73
2019-02-14T04:18:05.001Z,79.79
2019-02-14T04:20:34.246Z,79.77
2019-02-14T04:23:03.446Z,79.68
2019-02-14T04:25:32.558Z,79.57
2019-02-14T04:28:01.942Z,79.08
2019-02-14T04:30:31.064Z,79.21
2019-02-14T04:33:00.260Z,79.50
2019-02-14T04:35:29.483Z,79.35
2019-02-14T04:37:58.672Z,78.29
2019-02-14T04:40:33.429Z,78.06
2019-02-14T04:42:58.699Z,78.05
2019-02-14T04:45:27.903Z,78.29
2019-02-14T04:47:57.101Z,78.23
2019-02-14T04:50:26.281Z,77.82
2019-02-14T04:52:55.502Z,77.91
2019-02-14T04:55:25.627Z,78.16
2019-02-14T04:57:54.847Z,78.24
2019-02-14T05:00:24.040Z,78.15
2019-02-14T05:02:53.246Z,78.13
2019-02-14T05:05:22.469Z,78.14
2019-02-14T05:07:51.678Z,77.92
2019-02-14T05:10:20.861Z,77.82
2019-02-14T05:12:50.075Z,77.70
2019-02-14T05:15:19.303Z,77.45
2019-02-14T05:17:48.532Z,77.13
2019-02-14T05:20:17.744Z,77.04
2019-02-14T05:22:46.936Z,77.09
2019-02-14T05:25:16.162Z,76.88
2019-02-14T05:27:45.341Z,76.82
2019-02-14T05:30:18.750Z,76.71
2019-02-14T05:32:47.973Z,76.74
2019-02-14T05:35:17.163Z,76.62
2019-02-14T05:37:46.614Z,76.49
2019-02-14T05:40:15.821Z,76.21
2019-02-14T05:42:45.034Z,76.37
2019-02-14T05:45:14.810Z,76.32
2019-02-14T05:47:44.031Z,76.41
2019-02-14T05:50:14.827Z,76.46
2019-02-14T05:52:44.008Z,76.47
2019-02-14T05:55:13.523Z,76.22
2019-02-14T05:57:42.735Z,76.37
2019-02-14T06:00:14.532Z,76.69
2019-02-14T06:02:43.777Z,76.92
2019-02-14T06:05:12.981Z,77.04
2019-02-14T06:07:42.236Z,77.02
2019-02-14T06:10:12.004Z,76.90
2019-02-14T06:12:41.197Z,77.14
2019-02-14T06:15:11.765Z,77.24
2019-02-14T06:17:40.986Z,77.39
2019-02-14T06:20:11.606Z,77.75
2019-02-14T06:22:40.876Z,78.13
2019-02-14T06:25:11.114Z,78.47
2019-02-14T06:27:40.306Z,78.56
2019-02-14T06:30:15.287Z,78.74
2019-02-14T06:32:44.489Z,78.78
2019-02-14T06:35:13.845Z,79.11
2019-02-14T06:37:43.040Z,79.31
2019-02-14T06:40:13.608Z,79.56
2019-02-14T06:42:42.801Z,79.62
2019-02-14T06:45:17.089Z,79.74
2019-02-14T06:47:46.296Z,79.92
2019-02-14T06:50:15.876Z,80.16
2019-02-14T06:52:45.063Z,80.33
2019-02-14T06:55:14.278Z,80.51
2019-02-14T06:57:43.634Z,80.80
2019-02-14T07:00:19.146Z,80.89
2019-02-14T07:02:48.347Z,80.76
2019-02-14T07:05:17.533Z,80.77
2019-02-14T07:07:46.738Z,80.60
2019-02-14T07:10:15.955Z,80.67
2019-02-14T07:12:45.127Z,80.72
2019-02-14T07:15:15.095Z,80.88
2019-02-14T07:17:44.285Z,80.75
2019-02-14T07:20:15.581Z,80.62
2019-02-14T07:22:44.774Z,80.40
2019-02-14T07:25:14.033Z,80.01
2019-02-14T07:27:43.230Z,79.51
2019-02-14T07:30:20.877Z,78.48
2019-02-14T07:32:50.078Z,76.33
2019-02-14T07:35:19.270Z,74.02
2019-02-14T07:37:48.481Z,71.33
2019-02-14T07:40:17.739Z,69.87
2019-02-14T07:42:46.905Z,68.27
2019-02-14T07:45:19.109Z,67.85
2019-02-14T07:47:48.273Z,65.50
2019-02-14T07:50:17.463Z,64.62
2019-02-14T07:52:46.655Z,65.34
2019-02-14T07:55:15.917Z,64.64
2019-02-14T07:57:45.127Z,63.63
2019-02-14T08:00:18.254Z,62.47
2019-02-14T08:02:47.433Z,61.22
2019-02-14T08:05:16.619Z,60.90
2019-02-14T08:07:45.808Z,60.17
2019-02-14T08:10:22.286Z,59.33
2019-02-14T08:12:51.455Z,58.85
2019-02-14T08:15:20.648Z,57.62
2019-02-14T08:17:49.857Z,58.37
2019-02-14T08:20:22.267Z,58.98
2019-02-14T08:22:51.449Z,59.93
2019-02-14T08:25:20.653Z,61.01
2019-02-14T08:27:49.830Z,62.70
2019-02-14T08:30:20.910Z,61.45
2019-02-14T08:32:50.109Z,60.47
2019-02-14T08:35:19.295Z,59.39
2019-02-14T08:37:48.473Z,58.65
2019-02-14T08:40:26.831Z,59.05
2019-02-14T08:42:56.013Z,60.09
2019-02-14T08:45:25.208Z,61.75
2019-02-14T08:47:54.390Z,61.29
2019-02-14T08:50:23.585Z,57.90
2019-02-14T08:52:52.793Z,57.09
2019-02-14T08:55:21.971Z,57.72
2019-02-14T08:57:51.178Z,57.79
2019-02-14T09:00:20.443Z,57.79
2019-02-14T09:02:49.620Z,59.12
2019-02-14T09:05:18.815Z,62.08
2019-02-14T09:07:54.256Z,63.42
2019-02-14T09:10:18.967Z,61.65
2019-02-14T09:12:48.146Z,59.77
2019-02-14T09:15:17.335Z,59.77
2019-02-14T09:17:46.512Z,60.77
2019-02-14T09:20:17.339Z,61.12
2019-02-14T09:22:46.560Z,60.69
2019-02-14T09:25:15.763Z,61.75
2019-02-14T09:27:44.948Z,60.32
2019-02-14T09:30:17.375Z,61.16
2019-02-14T09:32:46.850Z,63.58
2019-02-14T09:35:16.021Z,63.58
2019-02-14T09:37:45.243Z,65.78
2019-02-14T09:40:16.463Z,66.49
2019-02-14T09:42:45.670Z,67.06
2019-02-14T09:45:15.252Z,67.40
2019-02-14T09:47:44.466Z,67.12
2019-02-14T09:50:14.785Z,67.22
2019-02-14T09:52:43.990Z,66.98
2019-02-14T09:55:14.125Z,67.25
2019-02-14T09:57:43.305Z,67.82
2019-02-14T10:00:19.418Z,68.05
2019-02-14T10:02:48.598Z,67.99
2019-02-14T10:05:17.703Z,67.99
2019-02-14T10:07:46.912Z,67.93
2019-02-14T10:10:17.914Z,68.08
2019-02-14T10:12:47.104Z,68.37
2019-02-14T10:15:16.308Z,67.67
2019-02-14T10:17:45.510Z,67.63
2019-02-14T10:20:18.416Z,67.31
2019-02-14T10:22:47.620Z,67.13
2019-02-14T10:25:16.793Z,66.75
2019-02-14T10:27:45.971Z,66.89
2019-02-14T10:30:19.920Z,67.12
2019-02-14T10:32:49.177Z,66.36
2019-02-14T10:35:18.395Z,65.70
2019-02-14T10:37:47.591Z,66.13
2019-02-14T10:40:17.225Z,66.62
2019-02-14T10:42:46.418Z,65.64
2019-02-14T10:45:19.078Z,65.84
2019-02-14T10:47:48.280Z,65.89
2019-02-14T10:50:17.482Z,66.24
2019-02-14T10:52:46.753Z,65.56
2019-02-14T10:55:16.167Z,65.45
2019-02-14T10:57:45.435Z,65.27
2019-02-14T11:00:27.522Z,65.75
2019-02-14T11:02:56.732Z,65.26
2019-02-14T11:05:26.581Z,65.34
2019-02-14T11:07:55.801Z,65.46
2019-02-14T11:10:25.042Z,65.56
2019-02-14T11:12:54.147Z,65.34
2019-02-14T11:15:24.882Z,65.51
2019-02-14T11:17:54.091Z,65.67
2019-02-14T11:20:23.291Z,65.45
2019-02-14T11:22:52.461Z,65.29
2019-02-14T11:25:27.440Z,65.43
2019-02-14T11:27:58.090Z,65.39
2019-02-14T11:30:27.338Z,65.40
2019-02-14T11:32:56.479Z,65.01
2019-02-14T11:35:25.663Z,65.25
2019-02-14T11:37:54.833Z,64.61
2019-02-14T11:40:24.063Z,64.38
2019-02-14T11:42:53.168Z,63.87
2019-02-14T11:45:26.023Z,63.87
2019-02-14T11:47:55.648Z,64.32
2019-02-14T11:50:24.843Z,63.83
2019-02-14T11:52:54.037Z,63.19
2019-02-14T11:55:23.216Z,62.87
2019-02-14T11:57:52.439Z,62.87
2019-02-14T12:00:24.488Z,63.07
2019-02-14T12:02:55.974Z,62.89
2019-02-14T12:05:24.653Z,61.49
2019-02-14T12:07:53.797Z,60.86
2019-02-14T12:10:22.972Z,60.86
2019-02-14T12:12:52.184Z,61.39
2019-02-14T12:15:23.291Z,60.86
2019-02-14T12:17:52.723Z,60.59
2019-02-14T12:20:21.948Z,60.48
2019-02-14T12:22:51.206Z,60.17
2019-02-14T12:25:23.179Z,60.29
2019-02-14T12:27:52.387Z,60.46
2019-02-14T12:30:21.636Z,59.77
2019-02-14T12:32:50.822Z,59.67
2019-02-14T12:35:20.037Z,59.69
2019-02-14T12:37:49.233Z,59.63
2019-02-14T12:40:18.353Z,59.34
2019-02-14T12:42:47.565Z,58.70
2019-02-14T12:45:20.522Z,58.37
2019-02-14T12:47:50.649Z,57.91
2019-02-14T12:50:19.881Z,57.53
2019-02-14T12:52:49.106Z,57.70
2019-02-14T12:55:18.302Z,57.11
2019-02-14T12:57:47.518Z,55.51
2019-02-14T13:00:19.405Z,55.51
2019-02-14T13:02:48.599Z,55.45
2019-02-14T13:05:17.843Z,54.66
2019-02-14T13:07:47.024Z,55.11
2019-02-14T13:10:18.215Z,54.99
2019-02-14T13:12:47.421Z,55.10
2019-02-14T13:15:19.679Z,55.01
2019-02-14T13:17:48.781Z,54.77
2019-02-14T13:20:18.003Z,54.93
2019-02-14T13:22:47.206Z,54.45
2019-02-14T13:25:16.571Z,54.58
2019-02-14T13:27:45.776Z,55.22
2019-02-14T13:30:27.490Z,54.90
2019-02-14T13:32:56.671Z,54.90
2019-02-14T13:35:25.896Z,53.81
2019-02-14T13:37:55.132Z,54.32
2019-02-14T13:40:24.321Z,54.57
2019-02-14T13:42:53.513Z,54.09
2019-02-14T13:45:25.766Z,53.96
2019-02-14T13:47:54.956Z,54.34
2019-02-14T13:50:24.154Z,54.08
2019-02-14T13:52:53.466Z,54.08
2019-02-14T13:55:22.686Z,53.32
2019-02-14T13:57:51.894Z,53.54
2019-02-14T14:00:26.963Z,53.88
2019-02-14T14:02:56.247Z,53.88
2019-02-14T14:05:25.431Z,54.10
2019-02-14T14:07:54.637Z,54.62
2019-02-14T14:10:23.823Z,55.31
2019-02-14T14:12:53.020Z,55.46
2019-02-14T14:15:22.226Z,55.71
2019-02-14T14:17:51.444Z,56.02
2019-02-14T14:20:20.624Z,56.22
2019-02-14T14:22:49.822Z,56.27
2019-02-14T14:25:19.029Z,56.27
2019-02-14T14:27:48.222Z,55.40
2019-02-14T14:30:17.425Z,55.40
2019-02-14T14:32:46.627Z,55.73
2019-02-14T14:35:15.845Z,55.28
2019-02-14T14:37:45.109Z,54.98
2019-02-14T14:40:16.249Z,54.98
2019-02-14T14:42:52.604Z,54.86
2019-02-14T14:45:28.938Z,54.41
2019-02-14T14:47:58.148Z,54.96
2019-02-14T14:50:27.334Z,55.35
2019-02-14T14:52:56.518Z,54.70
2019-02-14T14:55:25.753Z,54.36
2019-02-14T14:57:54.954Z,54.80
2019-02-14T15:00:24.158Z,54.80
2019-02-14T15:02:53.372Z,53.58
2019-02-14T15:05:22.570Z,53.58
2019-02-14T15:07:51.776Z,53.55
2019-02-14T15:10:20.985Z,54.13
2019-02-14T15:12:50.165Z,53.89
2019-02-14T15:15:19.355Z,54.87
2019-02-14T15:17:48.578Z,54.87
2019-02-14T15:20:17.806Z,55.84
2019-02-14T15:22:46.964Z,55.84
2019-02-14T15:25:17.081Z,56.11
2019-02-14T15:27:46.261Z,56.14
2019-02-14T15:30:16.503Z,56.31
2019-02-14T15:32:45.755Z,56.70
2019-02-14T15:35:14.971Z,56.00
2019-02-14T15:37:46.578Z,55.79
2019-02-14T15:40:15.130Z,55.81
2019-02-14T15:42:44.312Z,56.16
2019-02-14T15:45:13.508Z,55.85
2019-02-14T15:47:42.751Z,56.30
2019-02-14T15:50:11.917Z,55.68
2019-02-14T15:52:41.193Z,55.73
2019-02-14T15:55:10.592Z,55.46
2019-02-14T15:57:42.139Z,55.40
2019-02-14T16:00:13.349Z,55.28
2019-02-14T16:02:42.563Z,55.58
2019-02-14T16:05:11.737Z,54.53
2019-02-14T16:07:41.451Z,54.51
2019-02-14T16:10:18.269Z,54.82
2019-02-14T16:12:45.320Z,54.93
2019-02-14T16:15:12.622Z,54.72
2019-02-14T16:17:41.813Z,54.72
2019-02-14T16:20:11.166Z,55.07
2019-02-14T16:22:42.414Z,55.54
2019-02-14T16:25:11.264Z,55.54
2019-02-14T16:27:40.454Z,55.43
2019-02-14T16:30:11.200Z,54.54
2019-02-14T16:32:40.406Z,54.23
2019-02-14T16:35:09.666Z,54.04
2019-02-14T16:37:38.859Z,54.30
2019-02-14T16:40:09.734Z,54.85
2019-02-14T16:42:38.840Z,55.14
2019-02-14T16:45:08.957Z,55.58
2019-02-14T16:47:38.172Z,56.05
2019-02-14T16:50:09.603Z,56.33
2019-02-14T16:52:38.776Z,56.72
2019-02-14T16:55:08.174Z,56.91
2019-02-14T16:57:37.395Z,56.99
2019-02-14T17:00:11.814Z,57.00
2019-02-14T17:02:41.005Z,56.27
2019-02-14T17:05:10.452Z,56.37
2019-02-14T17:07:40.600Z,56.32
2019-02-14T17:10:11.431Z,56.31
2019-02-14T17:12:40.605Z,56.54
2019-02-14T17:15:10.901Z,56.62
2019-02-14T17:17:40.078Z,57.03
2019-02-14T17:20:11.172Z,56.75
2019-02-14T17:22:40.421Z,57.03
2019-02-14T17:25:09.699Z,57.41
2019-02-14T17:27:38.893Z,57.78
2019-02-14T17:30:09.803Z,58.32
2019-02-14T17:32:38.981Z,58.64
2019-02-14T17:35:08.468Z,59.11
2019-02-14T17:37:37.659Z,59.57
2019-02-14T17:40:09.455Z,59.84
2019-02-14T17:42:38.622Z,60.31
2019-02-14T17:45:09.647Z,60.83
2019-02-14T17:47:38.842Z,60.93
2019-02-14T17:50:09.180Z,61.45
2019-02-14T17:52:38.376Z,61.77
2019-02-14T17:55:09.547Z,61.98
2019-02-14T17:57:38.731Z,62.38
2019-02-14T18:00:12.403Z,63.30
2019-02-14T18:02:41.622Z,63.30
2019-02-14T18:05:10.911Z,63.34
2019-02-14T18:07:40.096Z,63.39
2019-02-14T18:10:11.613Z,63.79
2019-02-14T18:12:40.830Z,64.16
2019-02-14T18:15:12.696Z,64.97
2019-02-14T18:17:41.875Z,65.33
2019-02-14T18:20:11.769Z,65.33
2019-02-14T18:22:43.743Z,64.97
2019-02-14T18:25:13.241Z,65.22
2019-02-14T18:27:42.443Z,65.11
2019-02-14T18:30:12.562Z,65.26
2019-02-14T18:32:41.760Z,65.26
2019-02-14T18:35:12.596Z,65.06
2019-02-14T18:37:41.936Z,64.93
2019-02-14T18:40:11.888Z,64.93
2019-02-14T18:42:43.646Z,65.05
2019-02-14T18:45:13.880Z,65.33
2019-02-14T18:47:43.058Z,64.29
2019-02-14T18:50:13.507Z,64.47
2019-02-14T18:52:42.673Z,64.47
2019-02-14T18:55:12.303Z,64.19
2019-02-14T18:57:41.511Z,64.19
2019-02-14T19:00:15.994Z,64.76
2019-02-14T19:02:45.156Z,64.70
2019-02-14T19:05:14.436Z,64.83
2019-02-14T19:07:43.624Z,64.54
2019-02-14T19:10:17.127Z,64.79
2019-02-14T19:12:46.323Z,64.38
2019-02-14T19:15:15.579Z,64.38
2019-02-14T19:17:44.777Z,64.41
2019-02-14T19:20:14.234Z,64.22
2019-02-14T19:22:43.429Z,64.53
2019-02-14T19:25:12.701Z,63.79
2019-02-14T19:27:41.867Z,63.79
2019-02-14T19:30:12.378Z,64.27
2019-02-14T19:32:41.656Z,64.63
2019-02-14T19:35:10.837Z,63.79
2019-02-14T19:37:40.042Z,63.79
2019-02-14T19:40:09.506Z,63.25
2019-02-14T19:42:38.704Z,63.25
2019-02-14T19:45:09.788Z,62.92
2019-02-14T19:47:39.002Z,62.74
2019-02-14T19:50:10.235Z,62.14
2019-02-14T19:52:39.427Z,62.02
2019-02-14T19:55:10.205Z,62.00
2019-02-14T19:57:39.412Z,61.84
2019-02-14T20:00:16.403Z,61.91
2019-02-14T20:02:45.596Z,61.91
2019-02-14T20:05:14.794Z,62.08
2019-02-14T20:07:44.002Z,62.15
2019-02-14T20:10:16.491Z,61.95
2019-02-14T20:12:45.684Z,62.09
2019-02-14T20:15:19.667Z,61.35
2019-02-14T20:17:48.938Z,61.67
2019-02-14T20:20:18.395Z,61.84
2019-02-14T20:22:47.587Z,61.83
2019-02-14T20:25:20.174Z,61.69
2019-02-14T20:27:50.073Z,61.25
2019-02-14T20:30:19.425Z,61.21
2019-02-14T20:32:48.597Z,60.91
2019-02-14T20:35:17.778Z,60.53
2019-02-14T20:37:46.982Z,60.36
2019-02-14T20:40:16.182Z,60.37
2019-02-14T20:42:45.367Z,60.25
2019-02-14T20:45:15.214Z,60.56
2019-02-14T20:47:44.538Z,60.56
2019-02-14T20:50:14.765Z,61.07
2019-02-14T20:52:43.974Z,60.64
2019-02-14T20:55:15.978Z,60.94
2019-02-14T20:57:45.300Z,60.52
2019-02-14T21:00:26.901Z,60.28
2019-02-14T21:02:56.072Z,60.54
2019-02-14T21:05:25.251Z,60.29
2019-02-14T21:07:54.466Z,60.08
2019-02-14T21:10:23.641Z,59.85
2019-02-14T21:12:52.809Z,59.21
2019-02-14T21:15:22.004Z,58.67
2019-02-14T21:17:51.193Z,58.67
2019-02-14T21:20:20.373Z,58.06
2019-02-14T21:22:49.573Z,58.59
2019-02-14T21:25:22.438Z,58.74
2019-02-14T21:27:49.905Z,58.84
2019-02-14T21:30:20.507Z,58.68
2019-02-14T21:32:49.727Z,59.08
2019-02-14T21:35:18.905Z,59.31
2019-02-14T21:37:48.097Z,59.86
2019-02-14T21:40:20.495Z,60.33
2019-02-14T21:42:49.749Z,60.43
2019-02-14T21:45:19.172Z,60.54
2019-02-14T21:47:48.364Z,60.25
2019-02-14T21:50:17.549Z,60.63
2019-02-14T21:52:47.234Z,60.22
2019-02-14T21:55:17.319Z,60.21
2019-02-14T21:57:46.644Z,60.38
2019-02-14T22:00:21.459Z,60.50
2019-02-14T22:02:50.679Z,60.75
2019-02-14T22:05:24.418Z,60.50
2019-02-14T22:07:50.745Z,60.75
2019-02-14T22:10:19.954Z,60.89
2019-02-14T22:12:49.180Z,60.94
2019-02-14T22:15:21.168Z,60.75
2019-02-14T22:17:50.485Z,59.86
2019-02-14T22:20:19.675Z,59.71
2019-02-14T22:22:48.849Z,58.70
2019-02-14T22:25:18.199Z,58.22
2019-02-14T22:27:47.371Z,56.97
2019-02-14T22:30:17.488Z,55.69
2019-02-14T22:32:46.969Z,54.69
2019-02-14T22:35:16.336Z,54.38
2019-02-14T22:37:45.607Z,54.22
2019-02-14T22:40:14.953Z,54.38
2019-02-14T22:42:47.607Z,54.33
2019-02-14T22:45:15.750Z,54.25
2019-02-14T22:47:45.369Z,54.31
2019-02-14T22:50:14.607Z,54.36
2019-02-14T22:52:43.828Z,54.62
2019-02-14T22:55:13.875Z,54.98
2019-02-14T22:57:43.044Z,54.94
2019-02-14T23:00:15.305Z,55.14
2019-02-14T23:02:44.641Z,55.24
2019-02-14T23:05:13.980Z,55.33
2019-02-14T23:07:43.171Z,55.50
2019-02-14T23:10:12.359Z,55.50
2019-02-14T23:12:41.530Z,55.47
2019-02-14T23:15:10.719Z,55.45
2019-02-14T23:17:39.891Z,55.61
2019-02-14T23:20:09.143Z,55.66
2019-02-14T23:22:38.334Z,55.98
2019-02-14T23:25:07.665Z,56.26
2019-02-14T23:27:37.066Z,56.46
2019-02-14T23:30:09.301Z,56.82
2019-02-14T23:32:38.551Z,57.22
2019-02-14T23:35:07.764Z,57.19
2019-02-14T23:37:36.918Z,57.11
2019-02-14T23:40:07.256Z,57.30
2019-02-14T23:42:36.433Z,57.42
2019-02-14T23:45:08.613Z,57.62
2019-02-14T23:47:37.834Z,57.90
2019-02-14T23:50:09.048Z,58.08
2019-02-14T23:52:38.302Z,58.06
2019-02-14T23:55:08.722Z,58.15
2019-02-14T23:57:37.885Z,58.20
